Time;durP1;ratioP1;P1;durP2;ratioP2;P2;SDS_P1;SDS_P2;PMS_P1;PMS_P2;Temp;Humidity;BMP_temperature;BMP_pressure;BME280_temperature;BME280_humidity;BME280_pressure;Samples;Min_cycle;Max_cycle;Signal;HPM_P1;HPM_P2
2022/04/20 00:00:08;;;;;;;3.20;2.40;;;;;;;8.71;100.00;100140.91;6220595;23;20110;-61
2022/04/20 00:02:55;;;;;;;3.03;1.88;;;;;;;8.73;100.00;100152.38;6198621;23;20035;-62
2022/04/20 00:05:39;;;;;;;3.78;2.58;;;;;;;8.69;100.00;100155.03;6221840;23;20036;-63
2022/04/20 00:08:24;;;;;;;3.30;2.10;;;;;;;8.64;100.00;100141.88;6210004;23;20043;-62
2022/04/20 00:11:09;;;;;;;3.70;2.40;;;;;;;8.67;100.00;100152.41;6221540;23;20413;-62
2022/04/20 00:13:53;;;;;;;4.35;1.90;;;;;;;8.71;100.00;100155.94;6220312;23;20367;-70
2022/04/20 00:16:38;;;;;;;3.80;2.00;;;;;;;8.60;100.00;100155.09;6212106;23;20051;-62
2022/04/20 00:19:22;;;;;;;6.55;2.25;;;;;;;8.63;100.00;100155.94;6222767;23;20028;-61
2022/04/20 00:22:06;;;;;;;3.90;1.77;;;;;;;8.64;100.00;100152.44;6222981;23;20153;-62
2022/04/20 00:24:51;;;;;;;4.28;2.10;;;;;;;8.44;100.00;100114.69;6221965;23;20832;-62
2022/04/20 00:27:37;;;;;;;4.10;2.10;;;;;;;8.56;100.00;100142.81;6213123;23;20059;-60
2022/04/20 00:30:22;;;;;;;4.07;2.53;;;;;;;8.50;100.00;100143.72;6202058;23;20031;-61
2022/04/20 00:33:06;;;;;;;8.05;2.10;;;;;;;8.51;100.00;100147.25;6200419;23;20075;-62
2022/04/20 00:35:51;;;;;;;3.22;2.28;;;;;;;8.41;100.00;100145.53;6202456;23;20035;-62
2022/04/20 00:38:35;;;;;;;3.53;1.80;;;;;;;8.43;100.00;100144.63;6199757;23;20051;-62
2022/04/20 00:41:20;;;;;;;4.47;1.97;;;;;;;8.37;100.00;100139.38;6214209;23;20028;-61
2022/04/20 00:44:05;;;;;;;3.78;2.13;;;;;;;8.34;100.00;100135.88;6196881;23;20275;-60
2022/04/20 00:46:51;;;;;;;3.30;2.20;;;;;;;8.33;100.00;100134.13;6221926;23;20028;-61
2022/04/20 00:49:36;;;;;;;4.00;2.00;;;;;;;8.34;100.00;100135.88;6201891;23;20030;-63
2022/04/20 00:52:20;;;;;;;2.80;2.10;;;;;;;8.35;100.00;100135.84;6224134;23;20028;-63
2022/04/20 00:55:06;;;;;;;4.43;2.10;;;;;;;8.35;100.00;100142.94;6213659;23;20023;-62
2022/04/20 00:57:50;;;;;;;3.63;1.83;;;;;;;8.15;100.00;100123.63;6231475;23;20035;-64
2022/04/20 01:00:35;;;;;;;2.35;1.83;;;;;;;8.29;100.00;100138.56;6243663;23;20023;-63
2022/04/20 01:03:20;;;;;;;3.70;2.10;;;;;;;8.30;100.00;100144.69;6224722;23;20413;-60
2022/04/20 01:06:23;;;;;;;3.20;2.15;;;;;;;8.10;100.00;100154.44;6224722;23;20077;-65
2022/04/20 01:09:30;;;;;;;4.35;2.00;;;;;;;8.15;100.00;100147.41;6224619;23;20034;-60
2022/04/20 01:12:29;;;;;;;3.30;2.47;;;;;;;8.20;100.00;100150.88;6226786;23;20079;-61
2022/04/20 01:15:34;;;;;;;6.07;2.15;;;;;;;8.18;100.00;100155.28;6215176;23;20031;-61
2022/04/20 01:18:57;;;;;;;2.92;1.95;;;;;;;8.08;100.00;100141.22;6124697;23;20028;-61
2022/04/20 01:21:53;;;;;;;5.03;2.50;;;;;;;8.04;100.00;100147.41;6114045;23;20503;-60
2022/04/20 01:24:58;;;;;;;5.35;2.30;;;;;;;7.83;100.00;100121.09;6125831;23;20033;-62
2022/04/20 01:28:09;;;;;;;3.55;2.40;;;;;;;7.72;100.00;100098.28;6127742;23;20025;-60
2022/04/20 01:31:26;;;;;;;3.35;2.40;;;;;;;7.90;100.00;100135.16;6049305;23;20030;-61
2022/04/20 01:34:30;;;;;;;3.13;2.30;;;;;;;7.85;100.00;100124.63;6050093;23;20030;-60
2022/04/20 01:37:14;;;;;;;3.28;2.00;;;;;;;7.62;100.00;100094.78;6028109;23;20030;-61
2022/04/20 01:39:59;;;;;;;;;;;;;;;7.81;100.00;100111.44;5997872;23;20062;-61
2022/04/20 01:42:44;;;;;;;3.45;2.03;;;;;;;7.64;100.00;100100.06;6028983;23;19950;-63
2022/04/20 01:45:30;;;;;;;3.25;1.88;;;;;;;7.59;100.00;100107.97;6012964;23;20099;-62
2022/04/20 01:48:33;;;;;;;3.35;2.10;;;;;;;7.53;100.00;100102.72;6046090;23;20092;-61
2022/04/20 01:51:47;;;;;;;3.13;2.22;;;;;;;7.56;100.00;100093.94;6096894;23;20065;-63
2022/04/20 01:54:50;;;;;;;4.07;1.95;;;;;;;7.55;100.00;100097.44;6129337;23;20241;-60
2022/04/20 01:57:42;;;;;;;4.18;2.45;;;;;;;7.57;100.00;100098.31;6117543;23;20112;-63
2022/04/20 02:00:45;;;;;;;5.07;2.53;;;;;;;7.49;100.00;100094.81;6129166;23;20506;-62
2022/04/20 02:03:46;;;;;;;3.88;2.40;;;;;;;7.50;100.00;100097.47;6078703;23;20029;-62
2022/04/20 02:06:32;;;;;;;3.88;2.28;;;;;;;7.41;100.00;100091.31;6155563;23;20058;-62
2022/04/20 02:09:24;;;;;;;6.43;2.33;;;;;;;7.49;100.00;100093.06;6220464;23;20047;-61
2022/04/20 02:12:16;;;;;;;4.28;2.30;;;;;;;7.53;100.00;100092.19;6220272;23;20028;-60
2022/04/20 02:15:19;;;;;;;6.82;2.53;;;;;;;7.56;100.00;100100.06;6211284;23;20040;-62
2022/04/20 02:18:26;;;;;;;3.22;2.03;;;;;;;7.57;100.00;100095.69;6158707;23;20075;-62
2022/04/20 02:21:19;;;;;;;9.85;2.13;;;;;;;7.51;100.00;100101.84;6146395;23;20080;-63
2022/04/20 02:24:04;;;;;;;6.27;2.47;;;;;;;7.51;100.00;100107.13;6158807;23;20055;-62
2022/04/20 02:26:48;;;;;;;3.97;2.17;;;;;;;7.40;100.00;100074.59;6156805;23;20066;-62
2022/04/20 02:29:32;;;;;;;5.60;2.00;;;;;;;7.59;100.00;100104.44;6158465;23;20032;-62
2022/04/20 02:32:17;;;;;;;4.88;1.98;;;;;;;7.61;100.00;100105.34;6140262;23;20100;-62
2022/04/20 02:35:01;;;;;;;3.65;1.83;;;;;;;7.49;100.00;100066.69;6162502;23;20410;-62
2022/04/20 02:37:48;;;;;;;6.03;2.05;;;;;;;7.68;100.00;100097.38;6152679;23;20195;-62
2022/04/20 02:40:35;;;;;;;3.92;1.90;;;;;;;7.77;100.00;100110.56;6153821;23;20033;-62
2022/04/20 02:43:19;;;;;;;3.03;1.80;;;;;;;7.69;100.00;100106.19;6162777;23;20064;-62
2022/04/20 02:46:05;;;;;;;3.33;1.63;;;;;;;7.75;100.00;100104.41;6150073;23;20024;-63
2022/04/20 02:48:51;;;;;;;2.97;1.75;;;;;;;7.45;100.00;100057.03;6125780;23;20036;-62
2022/04/20 02:51:36;;;;;;;3.25;1.73;;;;;;;7.73;100.00;100113.22;6127299;23;20432;-63
2022/04/20 02:54:21;;;;;;;4.30;1.80;;;;;;;7.83;100.00;100136.94;6158004;23;20028;-64
2022/04/20 02:57:06;;;;;;;2.63;1.70;;;;;;;7.81;100.00;100111.44;6167242;23;20031;-62
2022/04/20 02:59:50;;;;;;;4.35;1.80;;;;;;;7.86;100.00;100136.94;6216937;23;20086;-61
2022/04/20 03:02:35;;;;;;;2.58;1.40;;;;;;;7.89;100.00;100144.84;6209605;23;20027;-63
2022/04/20 03:05:20;;;;;;;3.67;1.70;;;;;;;8.00;100.00;100158.00;6208368;23;20071;-64
2022/04/20 03:08:05;;;;;;;2.78;1.65;;;;;;;8.05;100.00;100149.19;6188135;23;20055;-63
2022/04/20 03:10:51;;;;;;;7.07;1.75;;;;;;;7.99;100.00;100149.19;6240932;23;20063;-63
2022/04/20 03:13:38;;;;;;;2.65;1.48;;;;;;;7.98;100.00;100139.53;6239406;23;20074;-65
2022/04/20 03:16:24;;;;;;;2.38;1.60;;;;;;;8.04;100.00;100141.28;6219241;23;20028;-63
2022/04/20 03:19:09;;;;;;;3.88;1.70;;;;;;;7.99;100.00;100133.34;6206522;23;20102;-63
2022/04/20 03:21:53;;;;;;;4.32;1.70;;;;;;;8.05;100.00;100141.28;6218554;23;20027;-65
2022/04/20 03:24:43;;;;;;;2.65;1.52;;;;;;;8.04;100.00;100123.63;6188681;23;20253;-62
2022/04/20 03:27:33;;;;;;;2.85;1.50;;;;;;;8.11;100.00;100137.72;6220738;23;20107;-63
2022/04/20 03:30:21;;;;;;;2.85;1.42;;;;;;;7.99;100.00;100109.59;6213313;23;20039;-62
2022/04/20 03:33:08;;;;;;;2.80;1.58;;;;;;;8.21;100.00;100128.91;6213637;23;20055;-65
2022/04/20 03:35:54;;;;;;;4.13;1.40;;;;;;;8.10;100.00;100098.97;6224337;23;20028;-63
2022/04/20 03:38:40;;;;;;;3.85;1.73;;;;;;;8.14;100.00;100104.25;6223436;23;20363;-62
2022/04/20 03:41:24;;;;;;;5.43;1.42;;;;;;;8.05;100.00;100095.50;6224322;23;20060;-63
2022/04/20 03:44:08;;;;;;;3.20;1.47;;;;;;;8.12;100.00;100118.34;6224724;23;20083;-67
2022/04/20 03:46:53;;;;;;;4.20;1.48;;;;;;;8.01;100.00;100092.00;6171686;23;20150;-62
2022/04/20 03:49:37;;;;;;;2.97;1.30;;;;;;;8.05;100.00;100088.47;6188594;23;20489;-64
2022/04/20 03:52:23;;;;;;;2.17;1.35;;;;;;;8.21;100.00;100107.75;6171043;23;20482;-63
2022/04/20 03:55:08;;;;;;;6.78;1.30;;;;;;;8.22;100.00;100101.59;6201812;23;20114;-66
2022/04/20 03:57:55;;;;;;;15.57;1.30;;;;;;;8.27;100.00;100102.47;6182417;23;20044;-63
2022/04/20 04:00:39;;;;;;;2.63;1.00;;;;;;;8.32;100.00;100096.25;6225222;23;20074;-65
2022/04/20 04:03:24;;;;;;;4.57;1.65;;;;;;;8.39;100.00;100100.59;6150361;23;20024;-64
2022/04/20 04:06:11;;;;;;;2.35;1.30;;;;;;;8.39;100.00;100097.09;6202262;23;20031;-66
2022/04/20 04:08:56;;;;;;;2.03;1.23;;;;;;;8.50;100.00;100101.44;6204101;23;20051;-64
2022/04/20 04:11:40;;;;;;;2.78;1.10;;;;;;;8.50;100.00;100112.00;6205038;23;20073;-67
2022/04/20 04:14:25;;;;;;;2.75;1.10;;;;;;;8.54;100.00;100099.63;6204848;23;20543;-64
2022/04/20 04:17:09;;;;;;;3.53;1.20;;;;;;;8.58;100.00;100109.28;6185071;23;20063;-64
2022/04/20 04:19:55;;;;;;;4.57;1.00;;;;;;;8.70;100.00;100118.03;6171328;23;20358;-63
2022/04/20 04:22:39;;;;;;;4.28;1.10;;;;;;;8.72;100.00;100118.03;6214894;23;20078;-62
2022/04/20 04:25:46;;;;;;;3.85;1.50;;;;;;;8.78;100.00;100125.88;6200502;23;20059;-65
2022/04/20 04:28:36;;;;;;;2.33;1.08;;;;;;;8.91;100.00;100131.09;6170965;23;20035;-63
2022/04/20 04:31:21;;;;;;;2.83;1.02;;;;;;;8.92;100.00;100135.50;6202123;23;20060;-66
2022/04/20 04:34:09;;;;;;;2.28;0.82;;;;;;;8.97;100.00;100146.91;6170997;23;20023;-66
2022/04/20 04:36:55;;;;;;;4.82;1.10;;;;;;;9.05;100.00;100149.50;6181398;23;20030;-65
2022/04/20 04:39:40;;;;;;;1.90;0.82;;;;;;;9.10;100.00;100153.84;6192588;23;20071;-66
2022/04/20 04:42:27;;;;;;;6.15;1.00;;;;;;;8.93;100.00;100117.84;6201861;23;20075;-63
2022/04/20 04:51:26;;;;;;;;;;;;;;;9.34;100.00;100158.09;6223416;23;20031;-63
2022/04/20 04:54:11;;;;;;;12.52;1.55;;;;;;;9.38;100.00;100167.75;6222508;23;20357;-63
2022/04/20 04:56:55;;;;;;;3.10;0.88;;;;;;;9.47;100.00;100178.25;6191788;23;20032;-63
2022/04/20 04:59:41;;;;;;;3.47;1.05;;;;;;;9.47;100.00;100181.75;6223218;23;20102;-63
2022/04/20 05:02:26;;;;;;;3.78;1.02;;;;;;;9.34;100.00;100153.66;6191653;23;20075;-62
2022/04/20 05:05:11;;;;;;;2.58;0.70;;;;;;;9.53;100.00;100178.16;6212161;23;20028;-63
2022/04/20 05:07:55;;;;;;;6.57;0.90;;;;;;;9.57;100.00;100172.84;6222578;23;20195;-64
2022/04/20 05:10:41;;;;;;;10.98;1.10;;;;;;;9.49;100.00;100142.94;6224347;23;20063;-62
2022/04/20 05:13:26;;;;;;;4.10;1.15;;;;;;;9.77;100.00;100159.38;6224985;23;20027;-62
2022/04/20 05:16:12;;;;;;;3.50;0.70;;;;;;;9.86;100.00;100182.25;6225293;23;20108;-62
2022/04/20 05:18:59;;;;;;;6.30;0.70;;;;;;;9.89;100.00;100169.84;6224828;23;20486;-64
2022/04/20 05:21:44;;;;;;;3.97;0.70;;;;;;;9.89;100.00;100159.25;6194074;23;20151;-64
2022/04/20 05:24:29;;;;;;;5.22;0.70;;;;;;;9.98;100.00;100182.13;6215081;23;20112;-63
2022/04/20 05:27:15;;;;;;;2.35;0.60;;;;;;;9.93;100.00;100160.13;6226051;23;20036;-63
2022/04/20 05:30:16;;;;;;;1.63;0.60;;;;;;;10.10;100.00;100174.97;6226505;23;20073;-63
2022/04/20 05:33:04;;;;;;;4.35;0.70;;;;;;;10.19;100.00;100168.66;6226251;23;20094;-63
2022/04/20 05:35:50;;;;;;;3.67;0.75;;;;;;;10.27;100.00;100177.41;6215845;23;20028;-62
2022/04/20 05:41:40;;;;;;;7.53;0.50;;;;;;;10.26;100.00;100181.84;6223914;23;20035;-63
2022/04/20 05:44:27;;;;;;;1.83;0.50;;;;;;;10.33;100.00;100187.94;6203249;23;20071;-63
2022/04/20 05:47:12;;;;;;;3.60;0.70;;;;;;;10.20;100.00;100151.88;6226425;23;20409;-63
2022/04/20 05:49:56;;;;;;;2.03;0.43;;;;;;;10.42;100.00;100190.47;6224955;23;20051;-64
2022/04/20 05:52:41;;;;;;;6.78;0.90;;;;;;;10.44;100.00;100172.78;6214696;23;20035;-64
2022/04/20 05:55:26;;;;;;;1.70;0.52;;;;;;;10.54;100.00;100198.25;6213780;23;20071;-64
2022/04/20 05:58:11;;;;;;;2.08;0.68;;;;;;;10.65;100.00;100202.53;6192967;23;20027;-63
2022/04/20 06:00:57;;;;;;;4.75;0.70;;;;;;;10.62;100.00;100177.81;6226234;23;20520;-62
2022/04/20 06:04:10;;;;;;;3.35;0.65;;;;;;;10.78;100.00;100201.47;6109924;23;20045;-62
2022/04/20 06:07:01;;;;;;;4.80;0.82;;;;;;;10.75;100.00;100180.28;6082128;23;20118;-62
2022/04/20 06:10:06;;;;;;;1.05;0.70;;;;;;;11.01;100.00;100212.63;6074656;23;20033;-64
2022/04/20 06:13:11;;;;;;;0.85;0.70;;;;;;;11.13;100.00;100211.56;6093999;23;20114;-62
2022/04/20 06:15:56;;;;;;;1.03;0.60;;;;;;;11.24;100.00;100220.25;6104627;23;20033;-63
2022/04/20 06:18:48;;;;;;;11.65;0.98;;;;;;;11.29;100.00;100216.63;6073990;23;20273;-64
2022/04/20 06:21:50;;;;;;;1.98;0.50;;;;;;;11.43;100.00;100211.09;6104581;23;20230;-64
2022/04/20 06:24:56;;;;;;;5.53;0.77;;;;;;;11.39;100.00;100188.16;6092408;23;20041;-62
2022/04/20 06:27:55;;;;;;;3.00;0.50;;;;;;;11.61;100.00;100222.31;6104196;23;20096;-62
2022/04/20 06:30:39;;;;;;;3.25;0.60;;;;;;;11.61;100.00;100206.38;6103879;23;20440;-62
2022/04/20 06:33:51;;;;;;;11.77;0.85;;;;;;;11.68;100.00;100207.13;6066279;23;20038;-69
2022/04/20 06:37:00;;;;;;;4.00;0.90;;;;;;;11.74;100.00;100197.28;6075041;23;20029;-63
2022/04/20 06:40:09;;;;;;;5.40;0.50;;;;;;;12.02;100.00;100198.53;6100173;23;20324;-62
2022/04/20 06:43:29;;;;;;;3.45;0.73;;;;;;;12.20;100.00;100191.97;6075269;23;20053;-62
2022/04/20 06:46:33;;;;;;;5.55;0.90;;;;;;;12.34;100.00;100190.78;6064661;23;20062;-62
2022/04/20 06:49:42;;;;;;;5.07;0.80;;;;;;;12.56;100.00;100185.91;6002824;23;20183;-62
2022/04/20 06:58:53;;;;;;;12.55;0.93;;;;;;;13.51;100.00;100177.47;6018070;23;20171;-61
2022/04/20 07:02:06;;;;;;;30.00;1.50;;;;;;;13.97;100.00;100179.81;6008240;23;20035;-62
2022/04/20 07:05:09;;;;;;;13.05;1.17;;;;;;;14.40;100.00;100182.16;6017543;23;20538;-62
2022/04/20 07:08:22;;;;;;;3.78;0.73;;;;;;;14.97;100.00;100185.75;6003109;23;20064;-62
2022/04/20 07:11:07;;;;;;;4.38;0.70;;;;;;;15.54;100.00;100184.78;6040768;23;20030;-62
2022/04/20 07:13:52;;;;;;;;;;;;;;;15.99;100.00;100203.75;6026490;23;20046;-62
2022/04/20 07:16:37;;;;;;;23.38;1.52;;;;;;;16.07;99.57;100188.28;6015927;23;19921;-61
2022/04/20 07:19:30;;;;;;;86.07;4.53;;;;;;;16.20;95.68;100194.94;6108961;23;20135;-62
2022/04/20 07:22:22;;;;;;;3.50;0.47;;;;;;;16.53;93.78;100202.66;6111365;23;20502;-62
2022/04/20 07:25:17;;;;;;;5.55;0.90;;;;;;;17.07;90.50;100210.38;6142750;23;20033;-62
2022/04/20 07:28:13;;;;;;;4.82;0.82;;;;;;;17.44;85.64;100186.56;6193019;23;20026;-62
2022/04/20 07:31:16;;;;;;;9.30;0.90;;;;;;;18.22;80.63;100204.66;6225572;23;20055;-61
2022/04/20 07:34:21;;;;;;;6.85;1.10;;;;;;;18.68;74.41;100206.19;6132231;23;20543;-62
2022/04/20 07:37:28;;;;;;;5.25;0.70;;;;;;;19.19;69.44;100196.53;6122793;23;20416;-63
2022/04/20 07:40:52;;;;;;;1.95;0.70;;;;;;;19.90;65.53;100184.94;5989261;24;20478;-62
2022/04/20 07:43:56;;;;;;;;;;;;;;;21.01;67.33;100190.56;5980170;24;20400;-62
2022/04/20 07:47:04;;;;;;;6.72;0.90;;;;;;;21.11;55.58;100185.53;5988961;24;19941;-63
2022/04/20 07:50:20;;;;;;;16.52;1.13;;;;;;;21.23;52.22;100174.94;5988603;24;20050;-64
2022/04/20 07:53:31;;;;;;;13.90;0.90;;;;;;;22.28;50.60;100177.69;5979716;24;20040;-63
2022/04/20 07:56:34;;;;;;;7.03;1.13;;;;;;;23.17;46.58;100181.88;5989391;24;20104;-63
2022/04/20 07:59:33;;;;;;;8.63;0.93;;;;;;;23.73;42.73;100184.47;5987771;24;20423;-63
2022/04/20 08:02:43;;;;;;;13.45;1.65;;;;;;;23.87;41.72;100178.13;5988180;24;20034;-62
2022/04/20 08:05:34;;;;;;;1.85;0.63;;;;;;;24.51;40.45;100176.31;5988462;24;20513;-63
2022/04/20 08:08:30;;;;;;;6.35;0.70;;;;;;;25.72;37.45;100163.72;5988146;24;20047;-62
2022/04/20 08:11:18;;;;;;;4.65;0.60;;;;;;;26.24;33.13;100173.34;6102918;23;20026;-62
2022/04/20 08:14:10;;;;;;;3.05;0.60;;;;;;;26.83;30.70;100173.13;6224421;23;20108;-63
2022/04/20 08:17:15;;;;;;;2.33;0.60;;;;;;;26.93;29.49;100181.44;6195434;23;20040;-63
2022/04/20 08:20:26;;;;;;;2.83;0.70;;;;;;;27.66;29.18;100175.28;6102620;23;20416;-63
2022/04/20 08:24:06;;;;;;;3.42;0.85;;;;;;;28.30;28.36;100160.66;6111980;23;20423;-62
2022/04/20 08:30:38;;;;;;;9.05;0.90;;;;;;;28.66;24.32;100170.25;6242103;22;20566;-63
2022/04/20 08:33:22;;;;;;;8.77;0.90;;;;;;;29.05;23.61;100181.28;6243375;23;20027;-64
2022/04/20 08:36:07;;;;;;;7.95;0.82;;;;;;;29.96;22.41;100178.38;6254852;23;20078;-63
2022/04/20 08:38:52;;;;;;;5.63;0.80;;;;;;;30.52;21.59;100177.50;6222236;23;20031;-65
2022/04/20 08:41:38;;;;;;;10.60;1.02;;;;;;;30.98;20.07;100180.31;6253419;23;20210;-63
2022/04/20 08:44:28;;;;;;;5.82;0.77;;;;;;;31.75;20.16;100181.66;6253464;23;20365;-62
2022/04/20 08:47:19;;;;;;;4.68;0.88;;;;;;;31.90;18.79;100154.59;6243397;23;20031;-66
2022/04/20 08:50:06;;;;;;;7.03;1.00;;;;;;;32.38;18.94;100168.78;6201809;23;20027;-63
2022/04/20 08:52:51;;;;;;;4.78;0.80;;;;;;;32.46;18.01;100163.34;6243447;23;20031;-63
2022/04/20 08:55:36;;;;;;;7.68;1.02;;;;;;;33.01;17.38;100168.41;6256187;23;20031;-62
2022/04/20 08:58:21;;;;;;;3.70;1.00;;;;;;;33.01;17.35;100182.16;6255011;23;20027;-63
2022/04/20 09:01:06;;;;;;;2.33;0.73;;;;;;;33.29;16.83;100167.19;6221969;23;20031;-64
2022/04/20 09:03:55;;;;;;;2.58;0.82;;;;;;;33.68;16.63;100164.78;6182007;23;20031;-65
2022/04/20 09:06:44;;;;;;;4.00;0.80;;;;;;;34.19;15.35;100159.06;6255691;23;20078;-63
2022/04/20 09:09:30;;;;;;;7.50;1.00;;;;;;;33.82;15.01;100158.66;6223376;23;20031;-65
2022/04/20 09:12:18;;;;;;;8.55;0.95;;;;;;;34.34;14.87;100179.41;6212121;23;20468;-63
2022/04/20 09:15:03;;;;;;;1.85;0.80;;;;;;;34.72;14.53;100175.94;6232760;23;20369;-63
2022/04/20 09:30:51;;;;;;;2.78;1.08;;;;;;;35.08;12.02;100170.91;6245034;22;20031;-64
2022/04/20 09:33:53;;;;;;;5.47;0.95;;;;;;;35.20;12.38;100178.59;6223825;23;20085;-63
2022/04/20 09:36:48;;;;;;;9.32;1.17;;;;;;;35.34;11.94;100185.31;6212655;23;20071;-64
2022/04/20 09:50:11;;;;;;;6.97;1.50;;;;;;;35.76;11.23;100180.34;6244059;23;20051;-63
2022/04/20 09:52:58;;;;;;;11.75;3.28;;;;;;;35.98;11.08;100162.91;6232113;23;20028;-62
2022/04/20 09:55:42;;;;;;;16.65;2.17;;;;;;;35.86;10.95;100181.81;6253359;23;20365;-65
2022/04/20 09:58:27;;;;;;;8.65;1.25;;;;;;;35.39;10.48;100171.88;6254273;23;20106;-63
2022/04/20 10:01:31;;;;;;;5.75;1.00;;;;;;;35.94;10.46;100176.25;6255721;23;20030;-64
2022/04/20 10:04:15;;;;;;;6.07;2.15;;;;;;;34.73;10.74;100185.94;6232836;23;20043;-64
2022/04/20 10:07:00;;;;;;;5.63;1.90;;;;;;;35.92;10.77;100177.47;6231004;23;20165;-63
2022/04/20 10:09:45;;;;;;;9.82;1.40;;;;;;;35.69;10.38;100149.81;6255579;23;20027;-64
2022/04/20 10:12:31;;;;;;;10.82;1.50;;;;;;;36.35;10.12;100165.81;6255337;23;20516;-63
2022/04/20 10:18:21;;;;;;;5.50;1.10;;;;;;;35.79;10.22;100166.19;6255490;23;20410;-64
2022/04/20 10:21:11;;;;;;;7.32;1.25;;;;;;;36.06;10.38;100169.25;6209757;23;20325;-64
2022/04/20 10:24:05;;;;;;;5.25;1.20;;;;;;;36.74;9.70;100164.59;6253127;23;20035;-64
2022/04/20 10:26:54;;;;;;;14.63;1.50;;;;;;;36.33;9.84;100165.09;6244003;23;20071;-65
2022/04/20 10:29:59;;;;;;;7.60;1.67;;;;;;;37.30;9.78;100171.44;6255113;23;20031;-64
2022/04/20 10:32:49;;;;;;;4.00;1.10;;;;;;;37.47;9.28;100164.66;6255291;23;20093;-64
2022/04/20 10:35:54;;;;;;;4.20;1.17;;;;;;;38.80;9.15;100187.91;6254908;23;20031;-63
2022/04/20 10:38:40;;;;;;;3.40;1.13;;;;;;;37.50;8.90;100155.97;6180251;23;20074;-64
2022/04/20 10:42:10;;;;;;;2.65;0.90;;;;;;;37.69;9.45;100176.69;6243759;23;20481;-66
2022/04/20 10:44:55;;;;;;;2.97;1.00;;;;;;;37.03;9.11;100152.72;6231307;23;20377;-64
2022/04/20 10:47:42;;;;;;;2.28;1.00;;;;;;;36.28;9.69;100162.91;6253108;23;20031;-69
2022/04/20 10:51:11;;;;;;;6.57;1.55;;;;;;;35.55;10.08;100161.59;6251419;22;20063;-65
2022/04/20 10:57:42;;;;;;;12.32;1.30;;;;;;;34.28;10.56;100152.50;6192596;23;20358;-64
2022/04/20 11:00:27;;;;;;;3.63;1.05;;;;;;;33.57;10.26;100137.56;6193971;23;20032;-65
2022/04/20 11:03:12;;;;;;;4.22;1.08;;;;;;;31.82;11.20;100138.91;6180528;23;20031;-65
2022/04/20 11:05:57;;;;;;;9.52;0.88;;;;;;;30.51;12.36;100129.25;6202070;23;20028;-62
2022/04/20 11:08:42;;;;;;;3.90;1.10;;;;;;;30.87;12.54;100150.34;6189768;23;20078;-63
2022/04/20 11:21:15;;;;;;;5.07;1.15;;;;;;;31.74;12.19;100127.84;6222969;23;20067;-65
2022/04/20 11:24:01;;;;;;;4.57;1.15;;;;;;;30.67;13.04;100126.75;6222380;23;20031;-65
2022/04/20 11:26:54;;;;;;;4.82;1.02;;;;;;;30.27;13.41;100119.78;6201667;23;20099;-67
2022/04/20 11:29:43;;;;;;;3.58;1.00;;;;;;;29.98;12.77;100122.50;6201198;23;20127;-65
2022/04/20 11:32:31;;;;;;;5.65;1.08;;;;;;;29.89;13.33;100115.16;6199269;23;20031;-65
2022/04/20 11:35:18;;;;;;;5.50;1.10;;;;;;;29.42;13.21;100108.63;6201648;23;20135;-65
2022/04/20 11:38:02;;;;;;;3.53;1.20;;;;;;;29.28;13.16;100098.09;6170919;23;20051;-65
2022/04/20 11:40:46;;;;;;;5.70;0.95;;;;;;;28.70;12.98;100085.25;6214431;23;20102;-66
2022/04/20 11:43:31;;;;;;;8.63;1.25;;;;;;;27.92;13.78;100089.47;6224470;23;20150;-65
2022/04/20 11:46:17;;;;;;;3.50;0.80;;;;;;;27.11;14.24;100085.50;6201207;23;20098;-64
2022/04/20 11:49:02;;;;;;;4.95;1.00;;;;;;;25.91;15.24;100073.53;6214616;23;20061;-65
2022/04/20 11:51:59;;;;;;;2.78;1.05;;;;;;;25.55;15.27;100076.31;6201535;23;20398;-63
2022/04/20 11:54:47;;;;;;;3.47;1.00;;;;;;;25.66;15.10;100068.22;6191360;23;20525;-64
2022/04/20 11:57:39;;;;;;;6.40;1.17;;;;;;;25.56;15.29;100057.19;6191594;23;20069;-62
2022/04/20 12:00:23;;;;;;;4.97;1.30;;;;;;;25.23;15.69;100053.44;6212062;23;20024;-66
2022/04/20 12:03:08;;;;;;;8.38;1.20;;;;;;;24.99;16.44;100056.16;6213985;23;20485;-64
2022/04/20 12:06:05;;;;;;;;;;;;;;;25.30;16.55;100071.91;6191889;23;20074;-65
2022/04/20 12:08:53;;;;;;;8.05;1.33;;;;;;;24.88;16.73;100049.78;6191321;23;19930;-63
2022/04/20 12:11:40;;;;;;;6.28;0.98;;;;;;;24.69;16.77;100062.97;6213395;23;20059;-63
2022/04/20 12:14:39;;;;;;;4.05;1.13;;;;;;;24.54;17.30;100047.78;6201249;23;20485;-63
2022/04/20 12:17:24;;;;;;;5.32;1.17;;;;;;;24.23;17.54;100040.97;6222589;23;20540;-64
2022/04/20 12:20:12;;;;;;;5.75;1.30;;;;;;;24.05;18.00;100027.88;6202023;23;20027;-64
2022/04/20 12:23:06;;;;;;;5.60;1.40;;;;;;;23.76;18.71;100037.13;6226128;23;20071;-63
2022/04/20 12:25:55;;;;;;;6.78;1.50;;;;;;;23.85;19.21;100041.94;6227025;23;20028;-64
2022/04/20 12:28:43;;;;;;;6.45;1.10;;;;;;;24.03;19.44;100029.81;6193580;23;20039;-65
2022/04/20 12:31:29;;;;;;;6.45;1.17;;;;;;;24.34;19.39;100032.06;6226188;23;20027;-64
2022/04/20 12:34:16;;;;;;;4.78;1.25;;;;;;;24.72;19.33;100031.03;6226430;23;20077;-64
2022/04/20 12:37:08;;;;;;;6.88;1.30;;;;;;;24.55;18.93;100033.22;6203663;23;20143;-64
2022/04/20 12:39:52;;;;;;;3.35;0.93;;;;;;;24.09;19.03;100032.09;6203582;23;20039;-65
2022/04/20 12:42:36;;;;;;;;;;;;;;;24.02;19.68;100025.38;6193833;23;20031;-64
2022/04/20 12:45:25;;;;;;;7.90;1.60;;;;;;;23.88;19.78;100014.59;6202967;23;19919;-66
2022/04/20 12:48:12;;;;;;;5.47;1.25;;;;;;;23.58;19.56;100001.34;6193314;23;20051;-65
2022/04/20 12:50:58;;;;;;;5.05;1.00;;;;;;;23.34;19.96;100013.03;6202948;23;20106;-66
2022/04/20 12:53:42;;;;;;;;;;;;;;;23.37;20.22;100004.69;6193795;23;20090;-64
2022/04/20 13:03:03;;;;;;;2.88;0.82;;;;;;;21.93;21.25;100017.78;6193822;23;20302;-65
2022/04/20 13:05:48;;;;;;;8.35;1.05;;;;;;;21.53;21.76;100013.91;6203557;23;20032;-64
2022/04/20 13:08:33;;;;;;;4.90;1.15;;;;;;;21.38;22.57;100011.28;6193651;23;20114;-63
2022/04/20 13:11:17;;;;;;;8.10;1.40;;;;;;;21.22;23.15;99992.47;6193325;23;20031;-63
2022/04/20 13:14:02;;;;;;;2.55;1.13;;;;;;;21.46;23.54;100011.69;6225475;23;20181;-64
2022/04/20 13:16:46;;;;;;;3.50;1.33;;;;;;;21.88;23.70;100014.53;6225208;23;20310;-64
2022/04/20 13:19:30;;;;;;;3.17;1.15;;;;;;;22.35;22.89;100008.81;6201803;23;20031;-64
2022/04/20 13:22:15;;;;;;;5.95;1.35;;;;;;;22.48;22.30;99999.84;6214642;23;20040;-64
2022/04/20 13:28:03;;;;;;;6.28;1.33;;;;;;;22.67;21.58;100004.94;6172303;23;20369;-64
2022/04/20 13:30:49;;;;;;;3.85;1.10;;;;;;;22.66;21.16;100004.03;6225517;23;20115;-64
2022/04/20 13:33:36;;;;;;;6.57;1.40;;;;;;;22.67;21.36;100005.81;6193885;23;20096;-64
2022/04/20 13:36:21;;;;;;;7.70;1.30;;;;;;;22.79;21.44;100006.81;6203042;23;20366;-64
2022/04/20 13:39:05;;;;;;;7.30;1.50;;;;;;;22.88;21.77;100000.81;6192407;23;20080;-64
2022/04/20 13:41:50;;;;;;;3.70;1.50;;;;;;;22.72;21.63;99968.50;6225240;23;20087;-62
2022/04/20 13:44:34;;;;;;;;;;;;;;;22.81;21.73;99994.06;6225443;23;20055;-63
2022/04/20 13:47:19;;;;;;;9.35;1.73;;;;;;;22.73;21.49;100005.38;6215277;23;19919;-63
2022/04/20 13:50:06;;;;;;;14.30;1.65;;;;;;;22.50;21.43;100015.97;6224958;23;20078;-62
2022/04/20 13:52:53;;;;;;;9.07;1.30;;;;;;;22.56;21.73;100007.47;6225395;23;20071;-63
2022/04/20 13:55:43;;;;;;;8.77;1.42;;;;;;;22.48;21.62;100016.06;6202342;23;20404;-64
2022/04/20 13:58:28;;;;;;;4.95;1.15;;;;;;;22.53;21.74;100013.06;6171318;23;20164;-64
2022/04/20 14:01:13;;;;;;;3.63;1.30;;;;;;;22.65;21.83;100005.03;6192225;23;20027;-63
2022/04/20 14:03:57;;;;;;;4.97;1.85;;;;;;;22.43;21.85;99998.38;6225116;23;20087;-62
2022/04/20 14:06:45;;;;;;;9.77;1.70;;;;;;;22.48;22.25;100012.50;6202245;23;20406;-62
2022/04/20 14:09:31;;;;;;;6.40;1.27;;;;;;;22.47;21.61;100002.66;6214882;23;20434;-67
2022/04/20 14:12:16;;;;;;;;;;;;;;;22.36;22.35;100013.25;6193151;23;20108;-64
2022/04/20 14:15:04;;;;;;;;;;;;;;;21.77;22.85;99993.56;6172360;23;19918;-64
2022/04/20 14:17:48;;;;;;;4.43;1.55;;;;;;;21.20;22.72;99983.59;6202193;23;19922;-63
2022/04/20 14:20:34;;;;;;;6.80;1.30;;;;;;;21.00;23.26;99999.19;6215030;23;20031;-64
2022/04/20 14:23:18;;;;;;;8.20;1.75;;;;;;;20.81;23.68;100006.59;6224561;23;20028;-62